sensor_id;sensor_type;location;lat;lon;timestamp;temperature;humidity
17307;DHT22;8771;48.048;7.682;2023-04-25T00:04:21;13.20;62.20
17307;DHT22;8771;48.048;7.682;2023-04-25T00:09:24;13.10;62.20
17307;DHT22;8771;48.048;7.682;2023-04-25T00:14:26;13.10;62.30
17307;DHT22;8771;48.048;7.682;2023-04-25T00:19:28;13.00;62.40
17307;DHT22;8771;48.048;7.682;2023-04-25T00:24:31;13.00;62.50
17307;DHT22;8771;48.048;7.682;2023-04-25T00:29:33;12.90;62.50
17307;DHT22;8771;48.048;7.682;2023-04-25T00:34:35;12.90;62.50
17307;DHT22;8771;48.048;7.682;2023-04-25T00:39:38;12.80;62.60
17307;DHT22;8771;48.048;7.682;2023-04-25T00:44:41;12.80;62.70
17307;DHT22;8771;48.048;7.682;2023-04-25T00:49:44;12.70;62.90
17307;DHT22;8771;48.048;7.682;2023-04-25T00:54:47;12.70;63.00
17307;DHT22;8771;48.048;7.682;2023-04-25T00:59:51;12.60;63.10
17307;DHT22;8771;48.048;7.682;2023-04-25T01:04:53;12.40;63.20
17307;DHT22;8771;48.048;7.682;2023-04-25T01:09:56;12.30;63.40
17307;DHT22;8771;48.048;7.682;2023-04-25T01:14:58;12.20;63.40
17307;DHT22;8771;48.048;7.682;2023-04-25T01:20:03;12.10;63.50
17307;DHT22;8771;48.048;7.682;2023-04-25T01:25:07;12.10;63.60
17307;DHT22;8771;48.048;7.682;2023-04-25T01:30:10;12.00;63.70
17307;DHT22;8771;48.048;7.682;2023-04-25T01:35:12;12.00;63.60
17307;DHT22;8771;48.048;7.682;2023-04-25T01:40:16;11.90;63.70
17307;DHT22;8771;48.048;7.682;2023-04-25T01:45:19;11.90;63.70
17307;DHT22;8771;48.048;7.682;2023-04-25T01:50:22;11.90;63.60
17307;DHT22;8771;48.048;7.682;2023-04-25T01:55:25;11.90;63.50
17307;DHT22;8771;48.048;7.682;2023-04-25T02:00:27;12.00;63.50
17307;DHT22;8771;48.048;7.682;2023-04-25T02:05:34;11.90;63.50
17307;DHT22;8771;48.048;7.682;2023-04-25T02:10:37;11.90;63.60
17307;DHT22;8771;48.048;7.682;2023-04-25T02:15:39;11.90;63.70
17307;DHT22;8771;48.048;7.682;2023-04-25T02:20:41;11.90;63.70
17307;DHT22;8771;48.048;7.682;2023-04-25T02:25:45;11.90;63.70
17307;DHT22;8771;48.048;7.682;2023-04-25T02:30:47;11.90;63.50
17307;DHT22;8771;48.048;7.682;2023-04-25T02:35:51;11.90;63.50
17307;DHT22;8771;48.048;7.682;2023-04-25T02:40:54;11.90;63.50
17307;DHT22;8771;48.048;7.682;2023-04-25T02:45:56;11.90;63.50
17307;DHT22;8771;48.048;7.682;2023-04-25T02:50:58;11.90;63.60
17307;DHT22;8771;48.048;7.682;2023-04-25T02:56:02;11.90;63.60
17307;DHT22;8771;48.048;7.682;2023-04-25T03:01:04;11.90;63.50
17307;DHT22;8771;48.048;7.682;2023-04-25T03:06:05;11.90;63.50
17307;DHT22;8771;48.048;7.682;2023-04-25T03:11:09;11.80;63.70
17307;DHT22;8771;48.048;7.682;2023-04-25T03:16:11;11.80;63.80
17307;DHT22;8771;48.048;7.682;2023-04-25T03:21:13;11.80;63.80
17307;DHT22;8771;48.048;7.682;2023-04-25T03:26:16;11.80;63.80
17307;DHT22;8771;48.048;7.682;2023-04-25T03:31:18;11.70;63.80
17307;DHT22;8771;48.048;7.682;2023-04-25T03:36:20;11.70;63.80
17307;DHT22;8771;48.048;7.682;2023-04-25T03:46:25;11.60;63.30
17307;DHT22;8771;48.048;7.682;2023-04-25T03:51:27;11.60;64.10
17307;DHT22;8771;48.048;7.682;2023-04-25T03:56:31;11.50;64.10
17307;DHT22;8771;48.048;7.682;2023-04-25T04:01:32;11.50;64.10
17307;DHT22;8771;48.048;7.682;2023-04-25T04:06:34;11.40;64.20
17307;DHT22;8771;48.048;7.682;2023-04-25T04:11:38;11.30;64.20
17307;DHT22;8771;48.048;7.682;2023-04-25T04:16:41;11.30;64.40
17307;DHT22;8771;48.048;7.682;2023-04-25T04:21:43;11.30;64.40
17307;DHT22;8771;48.048;7.682;2023-04-25T04:26:46;11.30;64.40
17307;DHT22;8771;48.048;7.682;2023-04-25T04:31:48;11.30;64.40
17307;DHT22;8771;48.048;7.682;2023-04-25T04:36:51;11.30;64.40
17307;DHT22;8771;48.048;7.682;2023-04-25T04:41:54;11.30;64.40
17307;DHT22;8771;48.048;7.682;2023-04-25T04:46:56;11.30;64.40
17307;DHT22;8771;48.048;7.682;2023-04-25T04:51:58;11.30;64.30
17307;DHT22;8771;48.048;7.682;2023-04-25T04:57:02;11.30;64.20
17307;DHT22;8771;48.048;7.682;2023-04-25T05:02:04;11.40;64.20
17307;DHT22;8771;48.048;7.682;2023-04-25T05:07:06;11.40;64.20
17307;DHT22;8771;48.048;7.682;2023-04-25T05:12:09;11.40;64.20
17307;DHT22;8771;48.048;7.682;2023-04-25T05:17:11;11.30;64.20
17307;DHT22;8771;48.048;7.682;2023-04-25T05:22:13;11.30;64.40
17307;DHT22;8771;48.048;7.682;2023-04-25T05:27:18;11.20;64.40
17307;DHT22;8771;48.048;7.682;2023-04-25T05:32:20;11.00;64.40
17307;DHT22;8771;48.048;7.682;2023-04-25T05:37:22;10.90;64.60
17307;DHT22;8771;48.048;7.682;2023-04-25T05:42:25;10.90;64.70
17307;DHT22;8771;48.048;7.682;2023-04-25T05:47:27;10.90;64.80
17307;DHT22;8771;48.048;7.682;2023-04-25T05:52:29;10.80;64.70
17307;DHT22;8771;48.048;7.682;2023-04-25T05:57:33;10.90;64.80
17307;DHT22;8771;48.048;7.682;2023-04-25T06:02:35;10.80;64.80
17307;DHT22;8771;48.048;7.682;2023-04-25T06:07:36;10.80;64.80
17307;DHT22;8771;48.048;7.682;2023-04-25T06:12:40;10.80;64.90
17307;DHT22;8771;48.048;7.682;2023-04-25T06:17:42;10.80;64.90
17307;DHT22;8771;48.048;7.682;2023-04-25T06:22:43;10.80;64.90
17307;DHT22;8771;48.048;7.682;2023-04-25T06:27:47;10.90;64.90
17307;DHT22;8771;48.048;7.682;2023-04-25T06:32:49;10.80;64.90
17307;DHT22;8771;48.048;7.682;2023-04-25T06:37:51;10.80;65.00
17307;DHT22;8771;48.048;7.682;2023-04-25T06:42:54;10.80;65.00
17307;DHT22;8771;48.048;7.682;2023-04-25T06:47:56;10.80;65.00
17307;DHT22;8771;48.048;7.682;2023-04-25T06:52:58;10.90;65.00
17307;DHT22;8771;48.048;7.682;2023-04-25T06:58:03;10.90;65.00
17307;DHT22;8771;48.048;7.682;2023-04-25T07:03:05;10.90;64.90
17307;DHT22;8771;48.048;7.682;2023-04-25T07:08:07;11.00;64.90
17307;DHT22;8771;48.048;7.682;2023-04-25T07:13:10;11.10;64.90
17307;DHT22;8771;48.048;7.682;2023-04-25T07:18:12;11.10;64.80
17307;DHT22;8771;48.048;7.682;2023-04-25T07:23:14;11.10;64.90
17307;DHT22;8771;48.048;7.682;2023-04-25T07:28:17;11.20;65.00
17307;DHT22;8771;48.048;7.682;2023-04-25T07:33:19;11.20;65.00
17307;DHT22;8771;48.048;7.682;2023-04-25T07:38:22;11.30;64.90
17307;DHT22;8771;48.048;7.682;2023-04-25T07:43:25;11.40;64.80
17307;DHT22;8771;48.048;7.682;2023-04-25T07:48:27;11.50;64.80
17307;DHT22;8771;48.048;7.682;2023-04-25T07:53:30;11.60;64.70
17307;DHT22;8771;48.048;7.682;2023-04-25T07:58:33;11.70;64.60
17307;DHT22;8771;48.048;7.682;2023-04-25T08:03:35;11.80;64.60
17307;DHT22;8771;48.048;7.682;2023-04-25T08:08:37;11.90;64.60
17307;DHT22;8771;48.048;7.682;2023-04-25T08:13:41;11.90;64.60
17307;DHT22;8771;48.048;7.682;2023-04-25T08:18:42;12.00;64.60
17307;DHT22;8771;48.048;7.682;2023-04-25T08:23:45;12.00;64.60
17307;DHT22;8771;48.048;7.682;2023-04-25T08:28:48;12.10;64.60
17307;DHT22;8771;48.048;7.682;2023-04-25T08:33:50;12.20;64.60
17307;DHT22;8771;48.048;7.682;2023-04-25T08:38:52;12.20;64.50
17307;DHT22;8771;48.048;7.682;2023-04-25T08:43:56;12.30;64.50
17307;DHT22;8771;48.048;7.682;2023-04-25T08:49:01;12.40;64.50
17307;DHT22;8771;48.048;7.682;2023-04-25T08:54:09;12.50;64.50
17307;DHT22;8771;48.048;7.682;2023-04-25T08:59:12;12.50;64.50
17307;DHT22;8771;48.048;7.682;2023-04-25T09:04:15;12.60;64.50
17307;DHT22;8771;48.048;7.682;2023-04-25T09:09:17;12.70;64.50
17307;DHT22;8771;48.048;7.682;2023-04-25T09:14:22;12.70;64.50
17307;DHT22;8771;48.048;7.682;2023-04-25T09:19:27;12.90;64.50
17307;DHT22;8771;48.048;7.682;2023-04-25T09:24:31;13.00;64.30
17307;DHT22;8771;48.048;7.682;2023-04-25T09:29:36;13.10;64.20
17307;DHT22;8771;48.048;7.682;2023-04-25T09:34:39;13.40;64.10
17307;DHT22;8771;48.048;7.682;2023-04-25T09:39:44;13.60;63.60
17307;DHT22;8771;48.048;7.682;2023-04-25T09:44:47;13.90;63.50
17307;DHT22;8771;48.048;7.682;2023-04-25T09:49:50;14.20;63.20
17307;DHT22;8771;48.048;7.682;2023-04-25T09:54:52;14.50;62.90
17307;DHT22;8771;48.048;7.682;2023-04-25T09:59:56;14.80;62.70
17307;DHT22;8771;48.048;7.682;2023-04-25T10:04:58;14.80;62.70
17307;DHT22;8771;48.048;7.682;2023-04-25T10:10:03;14.90;62.90
17307;DHT22;8771;48.048;7.682;2023-04-25T10:15:09;14.90;62.90
17307;DHT22;8771;48.048;7.682;2023-04-25T10:20:11;14.90;63.10
17307;DHT22;8771;48.048;7.682;2023-04-25T10:25:14;14.90;63.20
17307;DHT22;8771;48.048;7.682;2023-04-25T10:30:18;14.80;63.30
17307;DHT22;8771;48.048;7.682;2023-04-25T10:35:25;14.90;63.20
17307;DHT22;8771;48.048;7.682;2023-04-25T10:40:28;14.90;63.20
17307;DHT22;8771;48.048;7.682;2023-04-25T10:45:51;15.00;63.20
17307;DHT22;8771;48.048;7.682;2023-04-25T10:51:07;15.00;63.20
17307;DHT22;8771;48.048;7.682;2023-04-25T10:56:10;15.00;63.20
17307;DHT22;8771;48.048;7.682;2023-04-25T11:01:15;15.10;63.20
17307;DHT22;8771;48.048;7.682;2023-04-25T11:06:23;15.20;63.00
17307;DHT22;8771;48.048;7.682;2023-04-25T11:11:29;15.30;63.10
17307;DHT22;8771;48.048;7.682;2023-04-25T11:16:32;15.50;62.90
17307;DHT22;8771;48.048;7.682;2023-04-25T11:21:34;15.60;62.80
17307;DHT22;8771;48.048;7.682;2023-04-25T11:26:36;15.50;62.90
17307;DHT22;8771;48.048;7.682;2023-04-25T11:31:43;15.50;63.20
17307;DHT22;8771;48.048;7.682;2023-04-25T11:36:46;15.50;63.10
17307;DHT22;8771;48.048;7.682;2023-04-25T11:41:48;15.50;63.10
17307;DHT22;8771;48.048;7.682;2023-04-25T11:46:52;15.20;63.30
17307;DHT22;8771;48.048;7.682;2023-04-25T11:51:54;15.10;63.30
17307;DHT22;8771;48.048;7.682;2023-04-25T11:56:56;15.30;63.00
17307;DHT22;8771;48.048;7.682;2023-04-25T12:01:59;15.50;62.70
17307;DHT22;8771;48.048;7.682;2023-04-25T12:07:02;15.90;62.20
17307;DHT22;8771;48.048;7.682;2023-04-25T12:12:04;16.20;61.70
17307;DHT22;8771;48.048;7.682;2023-04-25T12:17:08;16.30;61.40
17307;DHT22;8771;48.048;7.682;2023-04-25T12:22:20;16.30;61.70
17307;DHT22;8771;48.048;7.682;2023-04-25T12:27:25;16.50;61.60
17307;DHT22;8771;48.048;7.682;2023-04-25T12:32:29;16.60;61.60
17307;DHT22;8771;48.048;7.682;2023-04-25T12:37:32;16.70;61.60
17307;DHT22;8771;48.048;7.682;2023-04-25T12:42:33;16.90;61.30
17307;DHT22;8771;48.048;7.682;2023-04-25T12:47:37;17.10;61.10
17307;DHT22;8771;48.048;7.682;2023-04-25T12:52:39;17.20;61.00
17307;DHT22;8771;48.048;7.682;2023-04-25T12:57:41;17.40;61.20
17307;DHT22;8771;48.048;7.682;2023-04-25T13:02:44;17.60;61.10
17307;DHT22;8771;48.048;7.682;2023-04-25T13:07:46;17.90;60.60
17307;DHT22;8771;48.048;7.682;2023-04-25T13:12:48;18.30;60.20
17307;DHT22;8771;48.048;7.682;2023-04-25T13:17:52;18.40;60.10
17307;DHT22;8771;48.048;7.682;2023-04-25T13:22:54;18.50;60.20
17307;DHT22;8771;48.048;7.682;2023-04-25T13:27:56;18.40;60.10
17307;DHT22;8771;48.048;7.682;2023-04-25T13:32:59;17.90;60.90
17307;DHT22;8771;48.048;7.682;2023-04-25T13:38:03;17.40;61.80
17307;DHT22;8771;48.048;7.682;2023-04-25T13:43:06;16.90;62.40
17307;DHT22;8771;48.048;7.682;2023-04-25T13:48:09;16.50;63.00
17307;DHT22;8771;48.048;7.682;2023-04-25T13:53:13;16.10;63.30
17307;DHT22;8771;48.048;7.682;2023-04-25T13:58:15;15.90;63.50
17307;DHT22;8771;48.048;7.682;2023-04-25T14:03:18;15.80;63.60
17307;DHT22;8771;48.048;7.682;2023-04-25T14:08:20;15.70;63.70
17307;DHT22;8771;48.048;7.682;2023-04-25T14:13:22;15.80;63.40
17307;DHT22;8771;48.048;7.682;2023-04-25T14:18:28;15.80;63.20
17307;DHT22;8771;48.048;7.682;2023-04-25T14:23:30;15.90;63.20
17307;DHT22;8771;48.048;7.682;2023-04-25T14:28:32;16.00;62.90
17307;DHT22;8771;48.048;7.682;2023-04-25T14:33:35;15.90;62.90
17307;DHT22;8771;48.048;7.682;2023-04-25T14:38:40;15.60;63.20
17307;DHT22;8771;48.048;7.682;2023-04-25T14:43:42;15.00;63.60
17307;DHT22;8771;48.048;7.682;2023-04-25T14:48:45;14.40;64.30
17307;DHT22;8771;48.048;7.682;2023-04-25T14:53:47;13.90;64.80
17307;DHT22;8771;48.048;7.682;2023-04-25T14:58:49;13.60;65.00
17307;DHT22;8771;48.048;7.682;2023-04-25T15:03:53;13.40;65.10
17307;DHT22;8771;48.048;7.682;2023-04-25T15:08:54;13.20;65.10
17307;DHT22;8771;48.048;7.682;2023-04-25T15:13:58;13.10;65.10
17307;DHT22;8771;48.048;7.682;2023-04-25T15:19:01;13.00;65.10
17307;DHT22;8771;48.048;7.682;2023-04-25T15:24:04;13.10;65.00
17307;DHT22;8771;48.048;7.682;2023-04-25T15:29:07;13.10;64.80
17307;DHT22;8771;48.048;7.682;2023-04-25T15:34:10;13.10;64.70
17307;DHT22;8771;48.048;7.682;2023-04-25T15:39:12;13.20;64.50
17307;DHT22;8771;48.048;7.682;2023-04-25T15:44:14;13.40;64.30
17307;DHT22;8771;48.048;7.682;2023-04-25T15:49:20;13.40;64.20
17307;DHT22;8771;48.048;7.682;2023-04-25T15:54:22;13.60;64.10
17307;DHT22;8771;48.048;7.682;2023-04-25T15:59:24;13.80;64.00
17307;DHT22;8771;48.048;7.682;2023-04-25T16:04:29;13.80;63.80
17307;DHT22;8771;48.048;7.682;2023-04-25T16:09:35;13.90;63.80
17307;DHT22;8771;48.048;7.682;2023-04-25T16:14:37;13.90;63.80
17307;DHT22;8771;48.048;7.682;2023-04-25T16:19:40;14.00;63.80
17307;DHT22;8771;48.048;7.682;2023-04-25T16:24:43;13.90;63.80
17307;DHT22;8771;48.048;7.682;2023-04-25T16:29:44;13.80;64.10
17307;DHT22;8771;48.048;7.682;2023-04-25T16:34:50;13.70;64.20
17307;DHT22;8771;48.048;7.682;2023-04-25T16:39:52;13.70;64.20
17307;DHT22;8771;48.048;7.682;2023-04-25T16:44:54;13.70;64.10
17307;DHT22;8771;48.048;7.682;2023-04-25T16:49:59;13.80;64.20
17307;DHT22;8771;48.048;7.682;2023-04-25T16:55:01;13.70;64.20
17307;DHT22;8771;48.048;7.682;2023-04-25T17:00:04;13.80;64.30
17307;DHT22;8771;48.048;7.682;2023-04-25T17:05:11;13.80;64.20
17307;DHT22;8771;48.048;7.682;2023-04-25T17:10:13;13.80;64.20
17307;DHT22;8771;48.048;7.682;2023-04-25T17:15:15;13.80;64.20
17307;DHT22;8771;48.048;7.682;2023-04-25T17:20:19;13.80;64.10
17307;DHT22;8771;48.048;7.682;2023-04-25T17:25:21;13.90;64.20
17307;DHT22;8771;48.048;7.682;2023-04-25T17:30:23;13.90;64.30
17307;DHT22;8771;48.048;7.682;2023-04-25T17:35:28;13.90;64.30
17307;DHT22;8771;48.048;7.682;2023-04-25T17:40:29;13.90;64.20
17307;DHT22;8771;48.048;7.682;2023-04-25T17:45:31;13.90;64.30
17307;DHT22;8771;48.048;7.682;2023-04-25T17:50:35;13.80;64.40
17307;DHT22;8771;48.048;7.682;2023-04-25T17:55:37;13.60;64.70
17307;DHT22;8771;48.048;7.682;2023-04-25T18:00:39;13.50;65.00
17307;DHT22;8771;48.048;7.682;2023-04-25T18:05:43;13.30;65.10
17307;DHT22;8771;48.048;7.682;2023-04-25T18:10:45;13.20;65.40
17307;DHT22;8771;48.048;7.682;2023-04-25T18:15:47;13.10;65.50
17307;DHT22;8771;48.048;7.682;2023-04-25T18:20:52;13.00;65.50
17307;DHT22;8771;48.048;7.682;2023-04-25T18:25:54;13.00;65.40
17307;DHT22;8771;48.048;7.682;2023-04-25T18:30:56;13.00;65.40
17307;DHT22;8771;48.048;7.682;2023-04-25T18:35:59;13.00;65.40
17307;DHT22;8771;48.048;7.682;2023-04-25T18:41:01;13.00;65.40
17307;DHT22;8771;48.048;7.682;2023-04-25T18:46:03;13.00;65.40
17307;DHT22;8771;48.048;7.682;2023-04-25T18:51:06;12.90;65.40
17307;DHT22;8771;48.048;7.682;2023-04-25T18:56:08;12.90;65.50
17307;DHT22;8771;48.048;7.682;2023-04-25T19:01:10;12.80;65.60
17307;DHT22;8771;48.048;7.682;2023-04-25T19:06:15;12.80;65.70
17307;DHT22;8771;48.048;7.682;2023-04-25T19:11:17;12.70;65.70
17307;DHT22;8771;48.048;7.682;2023-04-25T19:16:20;12.70;65.80
17307;DHT22;8771;48.048;7.682;2023-04-25T19:21:24;12.70;65.80
17307;DHT22;8771;48.048;7.682;2023-04-25T19:26:27;12.60;65.80
17307;DHT22;8771;48.048;7.682;2023-04-25T19:36:35;12.50;65.40
17307;DHT22;8771;48.048;7.682;2023-04-25T19:41:37;12.40;66.10
17307;DHT22;8771;48.048;7.682;2023-04-25T19:46:39;12.30;66.20
17307;DHT22;8771;48.048;7.682;2023-04-25T19:51:44;12.30;66.30
17307;DHT22;8771;48.048;7.682;2023-04-25T19:56:46;12.20;66.30
17307;DHT22;8771;48.048;7.682;2023-04-25T20:01:51;12.10;66.40
17307;DHT22;8771;48.048;7.682;2023-04-25T20:06:56;12.00;66.60
17307;DHT22;8771;48.048;7.682;2023-04-25T20:11:58;11.80;66.80
17307;DHT22;8771;48.048;7.682;2023-04-25T20:16:59;11.70;66.90
17307;DHT22;8771;48.048;7.682;2023-04-25T20:22:03;11.40;67.10
17307;DHT22;8771;48.048;7.682;2023-04-25T20:27:05;11.20;67.30
17307;DHT22;8771;48.048;7.682;2023-04-25T20:32:07;11.00;67.40
17307;DHT22;8771;48.048;7.682;2023-04-25T20:37:10;11.00;68.30
17307;DHT22;8771;48.048;7.682;2023-04-25T20:42:12;11.00;67.40
17307;DHT22;8771;48.048;7.682;2023-04-25T20:47:14;11.10;67.40
17307;DHT22;8771;48.048;7.682;2023-04-25T20:52:18;11.10;67.10
17307;DHT22;8771;48.048;7.682;2023-04-25T20:57:20;11.20;67.00
17307;DHT22;8771;48.048;7.682;2023-04-25T21:02:23;11.30;66.80
17307;DHT22;8771;48.048;7.682;2023-04-25T21:07:26;11.40;66.80
17307;DHT22;8771;48.048;7.682;2023-04-25T21:12:28;11.40;66.70
17307;DHT22;8771;48.048;7.682;2023-04-25T21:17:31;11.50;66.70
17307;DHT22;8771;48.048;7.682;2023-04-25T21:22:34;11.50;66.70
17307;DHT22;8771;48.048;7.682;2023-04-25T21:27:36;11.40;66.80
17307;DHT22;8771;48.048;7.682;2023-04-25T21:32:39;11.40;66.80
17307;DHT22;8771;48.048;7.682;2023-04-25T21:37:44;11.40;66.80
17307;DHT22;8771;48.048;7.682;2023-04-25T21:42:47;11.40;66.80
17307;DHT22;8771;48.048;7.682;2023-04-25T21:47:51;11.40;67.00
17307;DHT22;8771;48.048;7.682;2023-04-25T21:52:54;11.40;67.00
17307;DHT22;8771;48.048;7.682;2023-04-25T21:57:58;11.40;67.10
17307;DHT22;8771;48.048;7.682;2023-04-25T22:03:00;11.30;67.00
17307;DHT22;8771;48.048;7.682;2023-04-25T22:08:03;11.40;67.10
17307;DHT22;8771;48.048;7.682;2023-04-25T22:13:05;11.30;67.10
17307;DHT22;8771;48.048;7.682;2023-04-25T22:18:07;11.30;67.10
17307;DHT22;8771;48.048;7.682;2023-04-25T22:23:11;11.30;67.10
17307;DHT22;8771;48.048;7.682;2023-04-25T22:28:13;11.20;67.10
17307;DHT22;8771;48.048;7.682;2023-04-25T22:33:15;11.20;67.30
17307;DHT22;8771;48.048;7.682;2023-04-25T22:38:18;11.20;67.40
17307;DHT22;8771;48.048;7.682;2023-04-25T22:43:20;11.10;67.40
17307;DHT22;8771;48.048;7.682;2023-04-25T22:48:22;11.20;67.40
17307;DHT22;8771;48.048;7.682;2023-04-25T22:53:25;11.20;67.40
17307;DHT22;8771;48.048;7.682;2023-04-25T22:58:28;11.20;67.40
17307;DHT22;8771;48.048;7.682;2023-04-25T23:03:30;11.10;67.40
17307;DHT22;8771;48.048;7.682;2023-04-25T23:08:34;11.00;67.60
17307;DHT22;8771;48.048;7.682;2023-04-25T23:13:36;11.00;67.60
17307;DHT22;8771;48.048;7.682;2023-04-25T23:18:38;11.00;67.60
17307;DHT22;8771;48.048;7.682;2023-04-25T23:23:42;11.00;67.60
17307;DHT22;8771;48.048;7.682;2023-04-25T23:28:44;10.90;67.50
17307;DHT22;8771;48.048;7.682;2023-04-25T23:33:46;10.90;67.60
17307;DHT22;8771;48.048;7.682;2023-04-25T23:38:49;10.80;67.70
17307;DHT22;8771;48.048;7.682;2023-04-25T23:43:51;10.60;67.80
17307;DHT22;8771;48.048;7.682;2023-04-25T23:48:53;10.60;68.00
17307;DHT22;8771;48.048;7.682;2023-04-25T23:53:57;10.60;68.00
17307;DHT22;8771;48.048;7.682;2023-04-25T23:58:58;10.60;68.00
